createdAt,value
2018-04-04T00:00:22.783Z,0
2018-04-04T00:01:23.440Z,0
2018-04-04T00:02:24.094Z,0
2018-04-04T00:03:24.752Z,0
2018-04-04T00:04:25.446Z,0
2018-04-04T00:05:26.101Z,0
2018-04-04T00:06:26.757Z,0
2018-04-04T00:07:27.452Z,0
2018-04-04T00:08:28.108Z,0
2018-04-04T00:09:28.764Z,0
2018-04-04T00:10:29.420Z,0
2018-04-04T00:11:30.076Z,0
2018-04-04T00:12:30.732Z,0
2018-04-04T00:13:31.387Z,0
2018-04-04T00:14:32.043Z,0
2018-04-04T00:15:32.701Z,0
2018-04-04T00:16:33.356Z,0
2018-04-04T00:17:34.014Z,0
2018-04-04T00:18:34.669Z,0
2018-04-04T00:19:35.361Z,0
2018-04-04T00:20:36.020Z,0
2018-04-04T00:21:36.673Z,0
2018-04-04T00:22:37.330Z,0
2018-04-04T00:23:37.990Z,0
2018-04-04T00:24:38.645Z,0
2018-04-04T00:25:39.334Z,0
2018-04-04T00:26:39.991Z,0
2018-04-04T00:27:40.685Z,0
2018-04-04T00:28:41.342Z,0
2018-04-04T00:29:41.998Z,0
2018-04-04T00:30:42.654Z,0
2018-04-04T00:31:43.309Z,0
2018-04-04T00:32:43.965Z,0
2018-04-04T00:33:44.620Z,0
2018-04-04T00:34:45.276Z,0
2018-04-04T00:35:45.967Z,0
2018-04-04T00:36:46.622Z,0
2018-04-04T00:37:47.278Z,0
2018-04-04T00:38:47.932Z,0
2018-04-04T00:39:48.589Z,0
2018-04-04T00:40:49.244Z,0
2018-04-04T00:41:49.899Z,0
2018-04-04T00:42:50.555Z,0
2018-04-04T00:43:51.210Z,0
2018-04-04T00:44:51.868Z,0
2018-04-04T00:45:52.523Z,0
2018-04-04T00:46:53.177Z,0
2018-04-04T00:47:53.834Z,0
2018-04-04T00:48:54.489Z,0
2018-04-04T00:49:55.142Z,0
2018-04-04T00:50:55.797Z,0
2018-04-04T00:51:56.454Z,0
2018-04-04T00:52:57.108Z,0
2018-04-04T00:53:57.764Z,0
2018-04-04T00:54:58.420Z,0
2018-04-04T00:55:59.076Z,0
2018-04-04T00:56:59.730Z,0
2018-04-04T00:58:00.386Z,0
2018-04-04T00:59:01.042Z,0
2018-04-04T01:00:01.698Z,0
2018-04-04T01:01:02.358Z,0
2018-04-04T01:02:03.009Z,0
2018-04-04T01:03:03.664Z,0
2018-04-04T01:04:04.319Z,0
2018-04-04T01:05:04.972Z,0
2018-04-04T01:06:05.629Z,0
2018-04-04T01:07:06.284Z,0
2018-04-04T01:08:06.977Z,0
2018-04-04T01:09:07.632Z,0
2018-04-04T01:10:08.287Z,0
2018-04-04T01:11:08.943Z,0
2018-04-04T01:12:09.635Z,0
2018-04-04T01:13:10.292Z,0
2018-04-04T01:14:10.947Z,0
2018-04-04T01:15:11.601Z,0
2018-04-04T01:16:12.257Z,0
2018-04-04T01:17:12.911Z,0
2018-04-04T01:18:13.569Z,0
2018-04-04T01:19:14.223Z,0
2018-04-04T01:20:14.876Z,0
2018-04-04T01:21:15.531Z,0
2018-04-04T01:22:16.189Z,0
2018-04-04T01:23:16.840Z,0
2018-04-04T01:24:17.497Z,0
2018-04-04T01:25:18.150Z,0
2018-04-04T01:26:18.806Z,0
2018-04-04T01:27:19.460Z,0
2018-04-04T01:28:20.117Z,0
2018-04-04T01:29:20.770Z,0
2018-04-04T01:30:21.426Z,0
2018-04-04T01:31:22.080Z,0
2018-04-04T01:32:22.773Z,0
2018-04-04T01:33:23.428Z,0
2018-04-04T01:34:24.085Z,0
2018-04-04T01:35:24.738Z,0
2018-04-04T01:36:25.390Z,0
2018-04-04T01:37:26.045Z,0
2018-04-04T01:38:26.700Z,0
2018-04-04T01:39:27.357Z,0
2018-04-04T01:40:28.011Z,0
2018-04-04T01:41:28.665Z,0
2018-04-04T01:42:29.318Z,0
2018-04-04T01:43:29.975Z,0
2018-04-04T01:44:30.630Z,0
2018-04-04T01:45:31.284Z,0
2018-04-04T01:46:31.938Z,0
2018-04-04T01:47:32.596Z,0
2018-04-04T01:48:33.285Z,0
2018-04-04T01:49:33.946Z,0
2018-04-04T01:50:34.594Z,0
2018-04-04T01:51:35.250Z,0
2018-04-04T01:52:35.904Z,0
2018-04-04T01:53:36.559Z,0
2018-04-04T01:54:37.213Z,0
2018-04-04T01:55:37.869Z,0
2018-04-04T01:56:38.523Z,0
2018-04-04T01:57:39.178Z,0
2018-04-04T01:58:39.859Z,0
2018-04-04T01:59:40.488Z,0
2018-04-04T02:00:41.143Z,0
2018-04-04T02:01:41.803Z,0
2018-04-04T02:02:42.463Z,0
2018-04-04T02:03:43.110Z,0
2018-04-04T02:04:43.764Z,0
2018-04-04T02:05:44.420Z,0
2018-04-04T02:06:45.074Z,0
2018-04-04T02:07:45.731Z,0
2018-04-04T02:08:46.386Z,0
2018-04-04T02:09:47.040Z,0
2018-04-04T02:10:47.696Z,0
2018-04-04T02:11:48.351Z,0
2018-04-04T02:12:49.006Z,0
2018-04-04T02:13:49.660Z,0
2018-04-04T02:14:50.314Z,0
2018-04-04T02:15:50.970Z,0
2018-04-04T02:16:51.665Z,0
2018-04-04T02:17:52.316Z,0
2018-04-04T02:18:52.971Z,0
2018-04-04T02:19:53.627Z,0
2018-04-04T02:20:54.281Z,0
2018-04-04T02:21:54.937Z,0
2018-04-04T02:22:55.591Z,0
2018-04-04T02:23:56.283Z,0
2018-04-04T02:24:56.939Z,0
2018-04-04T02:25:57.593Z,0
2018-04-04T02:26:58.254Z,0
2018-04-04T02:27:58.905Z,0
2018-04-04T02:28:59.559Z,0
2018-04-04T02:30:00.214Z,0
2018-04-04T02:31:00.904Z,0
2018-04-04T02:32:01.590Z,0
2018-04-04T02:33:02.247Z,0
2018-04-04T02:34:02.904Z,0
2018-04-04T02:35:03.554Z,0
2018-04-04T02:36:04.210Z,0
2018-04-04T02:37:04.866Z,0
2018-04-04T02:38:05.521Z,0
2018-04-04T02:39:06.175Z,0
2018-04-04T02:40:06.831Z,0
2018-04-04T02:41:07.545Z,0
2018-04-04T02:42:08.140Z,0
2018-04-04T02:43:08.795Z,0
2018-04-04T02:44:09.450Z,0
2018-04-04T02:45:10.105Z,0
2018-04-04T02:46:10.761Z,0
2018-04-04T02:47:11.416Z,0
2018-04-04T02:48:12.070Z,0
2018-04-04T02:49:12.725Z,0
2018-04-04T02:50:13.383Z,0
2018-04-04T02:51:14.037Z,0
2018-04-04T02:52:14.692Z,0
2018-04-04T02:53:15.346Z,0
2018-04-04T02:54:16.002Z,0
2018-04-04T02:55:16.655Z,0
2018-04-04T02:56:17.312Z,0
2018-04-04T02:57:17.966Z,0
2018-04-04T02:58:18.621Z,0
2018-04-04T02:59:19.276Z,0
2018-04-04T03:00:19.931Z,0
2018-04-04T03:01:20.586Z,0
2018-04-04T03:02:21.242Z,0
2018-04-04T03:03:21.895Z,0
2018-04-04T03:04:22.551Z,0
2018-04-04T03:05:23.206Z,0
2018-04-04T03:06:23.862Z,0
2018-04-04T03:07:24.515Z,0
2018-04-04T03:08:25.170Z,0
2018-04-04T03:09:25.830Z,0
2018-04-04T03:10:26.481Z,0
2018-04-04T03:11:27.134Z,0
2018-04-04T03:12:27.789Z,0
2018-04-04T03:13:28.444Z,0
2018-04-04T03:14:29.101Z,0
2018-04-04T03:15:29.753Z,0
2018-04-04T03:16:30.408Z,0
2018-04-04T03:17:31.062Z,0
2018-04-04T03:18:31.719Z,0
2018-04-04T03:19:32.372Z,0
2018-04-04T03:20:33.026Z,0
2018-04-04T03:21:33.681Z,0
2018-04-04T03:22:34.337Z,0
2018-04-04T03:23:34.991Z,0
2018-04-04T03:24:35.683Z,0
2018-04-04T03:25:36.337Z,0
2018-04-04T03:26:36.993Z,0
2018-04-04T03:27:37.647Z,0
2018-04-04T03:28:38.313Z,0
2018-04-04T03:29:38.956Z,0
2018-04-04T03:30:39.611Z,0
2018-04-04T03:31:40.266Z,0
2018-04-04T03:32:40.919Z,0
2018-04-04T03:33:41.620Z,0
2018-04-04T03:34:42.267Z,0
2018-04-04T03:35:42.923Z,0
2018-04-04T03:36:43.610Z,0
2018-04-04T03:37:44.266Z,0
2018-04-04T03:38:44.920Z,0
2018-04-04T03:39:45.577Z,0
2018-04-04T03:40:46.228Z,0
2018-04-04T03:41:46.884Z,0
2018-04-04T03:42:47.537Z,0
2018-04-04T03:43:48.192Z,0
2018-04-04T03:44:48.848Z,0
2018-04-04T03:45:49.504Z,0
2018-04-04T03:46:50.160Z,0
2018-04-04T03:47:50.848Z,0
2018-04-04T03:48:51.504Z,0
2018-04-04T03:49:52.169Z,0
2018-04-04T03:50:52.812Z,0
2018-04-04T03:51:53.467Z,0
2018-04-04T03:52:54.122Z,0
2018-04-04T03:53:54.776Z,0
2018-04-04T03:54:55.432Z,0
2018-04-04T03:55:56.088Z,0
2018-04-04T03:56:56.743Z,0
2018-04-04T03:57:57.396Z,0
2018-04-04T03:58:58.050Z,0
2018-04-04T03:59:58.705Z,0
2018-04-04T04:00:59.361Z,0
2018-04-04T04:02:00.017Z,0
2018-04-04T04:03:00.671Z,0
2018-04-04T04:04:01.326Z,0
2018-04-04T04:05:01.980Z,0
2018-04-04T04:06:02.634Z,0
2018-04-04T04:07:03.289Z,0
2018-04-04T04:08:03.945Z,0
2018-04-04T04:09:04.600Z,0
2018-04-04T04:10:05.276Z,0
2018-04-04T04:11:05.914Z,0
2018-04-04T04:12:06.564Z,0
2018-04-04T04:13:07.219Z,0
2018-04-04T04:14:07.874Z,0
2018-04-04T04:15:08.564Z,0
2018-04-04T04:16:09.259Z,0
2018-04-04T04:17:09.875Z,0
2018-04-04T04:18:10.529Z,4
2018-04-04T04:19:11.184Z,4
2018-04-04T04:20:11.838Z,0
2018-04-04T04:21:12.498Z,4
2018-04-04T04:22:13.185Z,4
2018-04-04T04:23:13.841Z,4
2018-04-04T04:24:14.496Z,8
2018-04-04T04:25:15.152Z,8
2018-04-04T04:26:15.806Z,12
2018-04-04T04:27:16.461Z,12
2018-04-04T04:28:17.117Z,12
2018-04-04T04:29:17.774Z,16
2018-04-04T04:30:18.466Z,16
2018-04-04T04:31:19.182Z,24
2018-04-04T04:32:19.778Z,24
2018-04-04T04:33:20.437Z,28
2018-04-04T04:34:21.095Z,32
2018-04-04T04:35:21.748Z,40
2018-04-04T04:36:22.402Z,44
2018-04-04T04:37:23.060Z,52
2018-04-04T04:38:23.714Z,60
2018-04-04T04:39:24.368Z,64
2018-04-04T04:40:25.026Z,72
2018-04-04T04:41:25.685Z,80
2018-04-04T04:42:26.338Z,92
2018-04-04T04:43:26.995Z,100
2018-04-04T04:44:27.671Z,108
2018-04-04T04:45:28.308Z,120
2018-04-04T04:46:28.966Z,132
2018-04-04T04:47:29.625Z,144
2018-04-04T04:48:30.282Z,152
2018-04-04T04:49:30.938Z,164
2018-04-04T04:50:31.596Z,180
2018-04-04T04:51:32.260Z,188
2018-04-04T04:52:32.911Z,204
2018-04-04T04:53:33.604Z,220
2018-04-04T04:54:34.297Z,232
2018-04-04T04:55:34.955Z,248
2018-04-04T04:56:35.614Z,264
2018-04-04T04:57:36.270Z,288
2018-04-04T04:58:36.929Z,312
2018-04-04T04:59:37.586Z,340
2018-04-04T05:00:38.250Z,368
2018-04-04T05:01:38.959Z,396
2018-04-04T05:02:39.561Z,424
2018-04-04T05:03:40.219Z,452
2018-04-04T05:04:40.878Z,484
2018-04-04T05:05:41.536Z,520
2018-04-04T05:06:42.194Z,544
2018-04-04T05:07:42.852Z,564
2018-04-04T05:08:43.510Z,584
2018-04-04T05:09:44.168Z,616
2018-04-04T05:10:44.826Z,656
2018-04-04T05:11:45.484Z,700
2018-04-04T05:12:46.179Z,748
2018-04-04T05:13:46.836Z,788
2018-04-04T05:14:47.493Z,832
2018-04-04T05:15:48.152Z,868
2018-04-04T05:16:48.812Z,904
2018-04-04T05:17:49.470Z,928
2018-04-04T05:18:50.129Z,956
2018-04-04T05:19:50.786Z,992
2018-04-04T05:20:51.482Z,1028
2018-04-04T05:21:52.139Z,1076
2018-04-04T05:22:53.017Z,1132
2018-04-04T05:23:53.461Z,1188
2018-04-04T05:24:54.122Z,1240
2018-04-04T05:25:54.782Z,1304
2018-04-04T05:26:55.477Z,1388
2018-04-04T05:27:56.173Z,1480
2018-04-04T05:28:56.834Z,1556
2018-04-04T05:29:57.495Z,1628
2018-04-04T05:30:58.157Z,1680
2018-04-04T05:31:58.814Z,1700
2018-04-04T05:32:59.474Z,1752
2018-04-04T05:34:00.133Z,1816
2018-04-04T05:35:00.792Z,1900
2018-04-04T05:36:01.457Z,2008
2018-04-04T05:37:02.113Z,2112
2018-04-04T05:38:02.774Z,2220
2018-04-04T05:39:03.434Z,2312
2018-04-04T05:40:04.093Z,2380
2018-04-04T05:41:04.755Z,2400
2018-04-04T05:42:05.414Z,2372
2018-04-04T05:43:06.145Z,2332
2018-04-04T05:44:06.771Z,2308
2018-04-04T05:45:07.431Z,2308
2018-04-04T05:46:08.089Z,2316
2018-04-04T05:47:08.749Z,2352
2018-04-04T05:48:09.407Z,2468
2018-04-04T05:49:10.067Z,2628
2018-04-04T05:50:10.726Z,2776
2018-04-04T05:51:11.605Z,2940
2018-04-04T05:52:12.045Z,3060
2018-04-04T05:53:12.741Z,3172
2018-04-04T05:54:13.400Z,3268
2018-04-04T05:55:14.058Z,3368
2018-04-04T05:56:14.719Z,3508
2018-04-04T05:57:15.388Z,3632
2018-04-04T05:58:16.078Z,3840
2018-04-04T05:59:16.761Z,3972
2018-04-04T06:00:17.399Z,4060
2018-04-04T06:01:18.059Z,4124
2018-04-04T06:02:18.720Z,4172
2018-04-04T06:03:19.384Z,4228
2018-04-04T06:04:20.044Z,4308
2018-04-04T06:05:20.711Z,4424
2018-04-04T06:06:21.369Z,4604
2018-04-04T06:07:22.030Z,4728
2018-04-04T06:08:22.691Z,4872
2018-04-04T06:09:23.355Z,5008
2018-04-04T06:10:24.016Z,5220
2018-04-04T06:11:24.725Z,5404
2018-04-04T06:12:25.385Z,5648
2018-04-04T06:13:26.047Z,5904
2018-04-04T06:14:26.712Z,6188
2018-04-04T06:15:27.375Z,6424
2018-04-04T06:16:28.083Z,6592
2018-04-04T06:17:28.744Z,6648
2018-04-04T06:18:29.406Z,6648
2018-04-04T06:19:30.066Z,6592
2018-04-04T06:20:30.758Z,6544
2018-04-04T06:21:31.390Z,6504
2018-04-04T06:22:32.051Z,6492
2018-04-04T06:23:32.714Z,6496
2018-04-04T06:24:33.377Z,6516
2018-04-04T06:25:34.077Z,6556
2018-04-04T06:26:34.787Z,6580
2018-04-04T06:27:35.452Z,6616
2018-04-04T06:28:36.147Z,6616
2018-04-04T06:29:36.810Z,6624
2018-04-04T06:30:37.473Z,6700
2018-04-04T06:31:38.248Z,6740
2018-04-04T06:32:38.800Z,6772
2018-04-04T06:33:39.461Z,6704
2018-04-04T06:34:40.123Z,6640
2018-04-04T06:35:40.785Z,6584
2018-04-04T06:36:41.448Z,6528
2018-04-04T06:37:42.118Z,6424
2018-04-04T06:38:42.773Z,6420
2018-04-04T06:39:43.435Z,6400
2018-04-04T06:40:44.100Z,6364
2018-04-04T06:41:44.763Z,6308
2018-04-04T06:42:45.423Z,6264
2018-04-04T06:43:46.086Z,6276
2018-04-04T06:44:46.750Z,6328
2018-04-04T06:45:47.410Z,6400
2018-04-04T06:46:48.074Z,6460
2018-04-04T06:47:48.738Z,6512
2018-04-04T06:48:49.408Z,6576
2018-04-04T06:49:50.106Z,6672
2018-04-04T06:50:50.727Z,6808
2018-04-04T06:51:51.390Z,6992
2018-04-04T06:52:52.055Z,7216
2018-04-04T06:53:52.717Z,7440
2018-04-04T06:54:53.381Z,7640
2018-04-04T06:55:54.049Z,7816
2018-04-04T06:56:54.708Z,7948
2018-04-04T06:57:55.377Z,8012
2018-04-04T06:58:56.073Z,8068
2018-04-04T06:59:56.738Z,8120
2018-04-04T07:00:57.403Z,8192
2018-04-04T07:01:58.063Z,8340
2018-04-04T07:02:58.765Z,8556
2018-04-04T07:03:59.427Z,8900
2018-04-04T07:05:00.132Z,9284
2018-04-04T07:06:00.791Z,9808
2018-04-04T07:07:01.461Z,11120
2018-04-04T07:08:02.123Z,13048
2018-04-04T07:09:02.788Z,15496
2018-04-04T07:10:03.454Z,14848
2018-04-04T07:11:04.126Z,11940
2018-04-04T07:12:04.787Z,12404
2018-04-04T07:13:05.561Z,12528
2018-04-04T07:14:06.144Z,11236
2018-04-04T07:15:06.812Z,10768
2018-04-04T07:16:07.477Z,11392
2018-04-04T07:17:08.143Z,10760
2018-04-04T07:18:08.810Z,12232
2018-04-04T07:19:09.476Z,10112
2018-04-04T07:20:10.143Z,5920
2018-04-04T07:21:10.811Z,5256
2018-04-04T07:22:11.474Z,4828
2018-04-04T07:23:12.138Z,5540
2018-04-04T07:24:12.840Z,4756
2018-04-04T07:25:13.506Z,5376
2018-04-04T07:26:14.169Z,4784
2018-04-04T07:27:14.834Z,5664
2018-04-04T07:28:15.501Z,5868
2018-04-04T07:29:16.165Z,6188
2018-04-04T07:30:16.861Z,6628
2018-04-04T07:31:17.530Z,7104
2018-04-04T07:32:18.196Z,7940
2018-04-04T07:33:18.860Z,8820
2018-04-04T07:34:19.527Z,9184
2018-04-04T07:35:20.196Z,9020
2018-04-04T07:36:20.859Z,8840
2018-04-04T07:37:21.521Z,8824
2018-04-04T07:38:22.185Z,9024
2018-04-04T07:39:22.886Z,9140
2018-04-04T07:40:23.518Z,9620
2018-04-04T07:41:24.184Z,9248
2018-04-04T07:42:24.847Z,9764
2018-04-04T07:43:25.530Z,9748
2018-04-04T07:44:26.216Z,9808
2018-04-04T07:45:26.880Z,9716
2018-04-04T07:46:27.545Z,9424
2018-04-04T07:47:28.210Z,8776
2018-04-04T07:48:28.876Z,7880
2018-04-04T07:49:29.540Z,7404
2018-04-04T07:50:30.208Z,6832
2018-04-04T07:51:30.876Z,6432
2018-04-04T07:52:31.543Z,5868
2018-04-04T07:53:32.210Z,5500
2018-04-04T07:54:32.874Z,5660
2018-04-04T07:55:33.540Z,6048
2018-04-04T07:56:34.241Z,6636
2018-04-04T07:57:34.874Z,7060
2018-04-04T07:58:35.539Z,7640
2018-04-04T07:59:36.208Z,7704
2018-04-04T08:00:36.874Z,7156
2018-04-04T08:01:37.541Z,6120
2018-04-04T08:02:38.207Z,5368
2018-04-04T08:03:38.872Z,5616
2018-04-04T08:04:39.539Z,6320
2018-04-04T08:05:40.254Z,6092
2018-04-04T08:06:40.874Z,5164
2018-04-04T08:07:41.541Z,4252
2018-04-04T08:08:42.253Z,3952
2018-04-04T08:09:42.951Z,4300
2018-04-04T08:10:43.617Z,4928
2018-04-04T08:11:44.281Z,5600
2018-04-04T08:12:44.954Z,6004
2018-04-04T08:13:45.651Z,6224
2018-04-04T08:14:46.318Z,6576
2018-04-04T08:15:46.986Z,6948
2018-04-04T08:16:47.689Z,6940
2018-04-04T08:17:48.352Z,6780
2018-04-04T08:18:49.018Z,6660
2018-04-04T08:19:49.690Z,6684
2018-04-04T08:20:50.350Z,7304
2018-04-04T08:21:51.016Z,8608
2018-04-04T08:22:51.683Z,8864
2018-04-04T08:23:52.350Z,9412
2018-04-04T08:24:53.018Z,9628
2018-04-04T08:25:53.682Z,9784
2018-04-04T08:26:54.347Z,9960
2018-04-04T08:27:55.030Z,10300
2018-04-04T08:28:55.720Z,10276
2018-04-04T08:29:56.387Z,10272
2018-04-04T08:30:57.056Z,11104
2018-04-04T08:31:57.725Z,10944
2018-04-04T08:32:58.394Z,10560
2018-04-04T08:33:59.060Z,10160
2018-04-04T08:34:59.728Z,10576
2018-04-04T08:36:00.393Z,10704
2018-04-04T08:37:01.061Z,10684
2018-04-04T08:38:01.731Z,10352
2018-04-04T08:39:02.397Z,9880
2018-04-04T08:40:03.064Z,9568
2018-04-04T08:41:03.771Z,9476
2018-04-04T08:42:04.439Z,9544
2018-04-04T08:43:05.109Z,10460
2018-04-04T08:44:05.777Z,10668
2018-04-04T08:45:06.447Z,10492
2018-04-04T08:46:07.115Z,10544
2018-04-04T08:47:07.784Z,9552
2018-04-04T08:48:08.453Z,10416
2018-04-04T08:49:09.124Z,10944
2018-04-04T08:50:09.830Z,10952
2018-04-04T08:51:10.501Z,11172
2018-04-04T08:52:11.171Z,11172
2018-04-04T08:53:11.885Z,11040
2018-04-04T08:54:12.510Z,10552
2018-04-04T08:55:13.181Z,10440
2018-04-04T08:56:13.886Z,10484
2018-04-04T08:57:14.556Z,10576
2018-04-04T08:58:15.226Z,10368
2018-04-04T08:59:15.896Z,9620
2018-04-04T09:00:16.568Z,9028
2018-04-04T09:01:17.237Z,9340
2018-04-04T09:02:17.905Z,8980
2018-04-04T09:03:18.573Z,8580
2018-04-04T09:04:19.242Z,8352
2018-04-04T09:05:19.911Z,8116
2018-04-04T09:06:20.580Z,7884
2018-04-04T09:07:21.249Z,7460
2018-04-04T09:08:21.919Z,7240
2018-04-04T09:09:22.588Z,6632
2018-04-04T09:10:23.257Z,6988
2018-04-04T09:11:23.924Z,7368
2018-04-04T09:12:24.620Z,7436
2018-04-04T09:13:25.264Z,7240
2018-04-04T09:14:25.994Z,7200
2018-04-04T09:15:26.602Z,7068
2018-04-04T09:16:27.284Z,7036
2018-04-04T09:17:27.989Z,7052
2018-04-04T09:18:28.649Z,7232
2018-04-04T09:19:29.318Z,7372
2018-04-04T09:20:29.988Z,7588
2018-04-04T09:21:30.659Z,7728
2018-04-04T09:22:31.328Z,7856
2018-04-04T09:23:31.997Z,7804
2018-04-04T09:24:32.668Z,7744
2018-04-04T09:25:33.339Z,7776
2018-04-04T09:26:34.011Z,7500
2018-04-04T09:27:34.685Z,7588
2018-04-04T09:28:35.348Z,7412
2018-04-04T09:29:36.056Z,7148
2018-04-04T09:30:36.725Z,6916
2018-04-04T09:31:37.397Z,6788
2018-04-04T09:32:38.070Z,6876
2018-04-04T09:33:38.739Z,6892
2018-04-04T09:34:39.410Z,6268
2018-04-04T09:35:40.107Z,6900
2018-04-04T09:36:40.749Z,6824
2018-04-04T09:37:41.418Z,7232
2018-04-04T09:38:42.088Z,7632
2018-04-04T09:39:42.757Z,8064
2018-04-04T09:40:43.466Z,8300
2018-04-04T09:41:44.137Z,8152
2018-04-04T09:42:44.807Z,7988
2018-04-04T09:43:45.477Z,7984
2018-04-04T09:44:46.145Z,8156
2018-04-04T09:45:46.814Z,8204
2018-04-04T09:46:47.485Z,8052
2018-04-04T09:47:48.154Z,7928
2018-04-04T09:48:48.824Z,7852
2018-04-04T09:49:49.494Z,7556
2018-04-04T09:50:50.166Z,7396
2018-04-04T09:51:50.835Z,7152
2018-04-04T09:52:51.504Z,6812
2018-04-04T09:53:52.174Z,6864
2018-04-04T09:54:52.844Z,6892
2018-04-04T09:55:53.513Z,6936
2018-04-04T09:56:54.181Z,6884
2018-04-04T09:57:54.853Z,6828
2018-04-04T09:58:55.524Z,6664
2018-04-04T09:59:56.230Z,6176
2018-04-04T10:00:56.899Z,6292
2018-04-04T10:01:57.568Z,6332
2018-04-04T10:02:58.238Z,5900
2018-04-04T10:03:58.909Z,5656
2018-04-04T10:04:59.578Z,5488
2018-04-04T10:06:00.249Z,5708
2018-04-04T10:07:00.921Z,5984
2018-04-04T10:08:01.596Z,6144
2018-04-04T10:09:02.298Z,6276
2018-04-04T10:10:02.967Z,6148
2018-04-04T10:11:03.637Z,6336
2018-04-04T10:12:04.308Z,6092
2018-04-04T10:13:05.015Z,6132
2018-04-04T10:14:05.736Z,6296
2018-04-04T10:15:06.405Z,6416
2018-04-04T10:16:07.076Z,6732
2018-04-04T10:17:07.745Z,6984
2018-04-04T10:18:08.430Z,6972
2018-04-04T10:19:09.099Z,6788
2018-04-04T10:20:09.768Z,6540
2018-04-04T10:21:10.438Z,5568
2018-04-04T10:22:11.106Z,4812
2018-04-04T10:23:11.775Z,5324
2018-04-04T10:24:12.441Z,5092
2018-04-04T10:25:13.111Z,5832
2018-04-04T10:26:13.780Z,6740
2018-04-04T10:27:14.449Z,7696
2018-04-04T10:28:15.116Z,8616
2018-04-04T10:29:15.786Z,10232
2018-04-04T10:30:16.456Z,10776
2018-04-04T10:31:17.127Z,11068
2018-04-04T10:32:17.793Z,10928
2018-04-04T10:33:18.469Z,10620
2018-04-04T10:34:19.169Z,10068
2018-04-04T10:35:19.836Z,9348
2018-04-04T10:36:20.505Z,8912
2018-04-04T10:37:21.175Z,8268
2018-04-04T10:38:21.845Z,7840
2018-04-04T10:39:22.513Z,7336
2018-04-04T10:40:23.183Z,6960
2018-04-04T10:41:23.885Z,6728
2018-04-04T10:42:24.554Z,6656
2018-04-04T10:43:25.222Z,6712
2018-04-04T10:44:25.972Z,6808
2018-04-04T10:45:26.559Z,7048
2018-04-04T10:46:27.228Z,7200
2018-04-04T10:47:27.895Z,7368
2018-04-04T10:48:28.562Z,7512
2018-04-04T10:49:29.231Z,7840
2018-04-04T10:50:29.998Z,7816
2018-04-04T10:51:30.566Z,8124
2018-04-04T10:52:31.272Z,8288
2018-04-04T10:53:31.942Z,8388
2018-04-04T10:54:32.611Z,8216
2018-04-04T10:55:33.278Z,7944
2018-04-04T10:56:33.945Z,7572
2018-04-04T10:57:34.613Z,7560
2018-04-04T10:58:35.280Z,7744
2018-04-04T10:59:35.948Z,8132
2018-04-04T11:00:36.615Z,7972
2018-04-04T11:01:37.285Z,7656
2018-04-04T11:02:37.953Z,6748
2018-04-04T11:03:38.620Z,6888
2018-04-04T11:04:39.287Z,7636
2018-04-04T11:05:39.954Z,7252
2018-04-04T11:06:40.622Z,5264
2018-04-04T11:07:41.289Z,6396
2018-04-04T11:08:41.956Z,6540
2018-04-04T11:09:42.626Z,6700
2018-04-04T11:10:43.329Z,6612
2018-04-04T11:11:43.997Z,6368
2018-04-04T11:12:44.664Z,4264
2018-04-04T11:13:45.332Z,5584
2018-04-04T11:14:45.998Z,5844
2018-04-04T11:15:46.666Z,5720
2018-04-04T11:16:47.333Z,6380
2018-04-04T11:17:48.003Z,6092
2018-04-04T11:18:48.671Z,7592
2018-04-04T11:19:49.338Z,5944
2018-04-04T11:20:50.006Z,8100
2018-04-04T11:21:50.673Z,8436
2018-04-04T11:22:51.340Z,7704
2018-04-04T11:23:52.066Z,8196
2018-04-04T11:24:52.674Z,5996
2018-04-04T11:25:53.344Z,5964
2018-04-04T11:26:54.012Z,6248
2018-04-04T11:27:54.678Z,6228
2018-04-04T11:28:55.345Z,5640
2018-04-04T11:29:56.015Z,5872
2018-04-04T11:30:56.687Z,7764
2018-04-04T11:31:57.352Z,6840
2018-04-04T11:32:58.016Z,8236
2018-04-04T11:33:58.686Z,8056
2018-04-04T11:34:59.398Z,7576
2018-04-04T11:36:00.057Z,7152
2018-04-04T11:37:00.723Z,6780
2018-04-04T11:38:01.390Z,6500
2018-04-04T11:39:02.058Z,6348
2018-04-04T11:40:02.725Z,6320
2018-04-04T11:41:03.392Z,6204
2018-04-04T11:42:04.097Z,6128
2018-04-04T11:43:04.765Z,6128
2018-04-04T11:44:05.432Z,5208
2018-04-04T11:45:06.098Z,4492
2018-04-04T11:46:06.766Z,6832
2018-04-04T11:47:07.433Z,5256
2018-04-04T11:48:08.100Z,7296
2018-04-04T11:49:08.771Z,7672
2018-04-04T11:50:09.440Z,7300
2018-04-04T11:51:10.108Z,7036
2018-04-04T11:52:10.813Z,4560
2018-04-04T11:53:11.478Z,5840
2018-04-04T11:54:12.145Z,6552
2018-04-04T11:55:12.813Z,6804
2018-04-04T11:56:13.480Z,7340
2018-04-04T11:57:14.152Z,6448
2018-04-04T11:58:14.817Z,6856
2018-04-04T11:59:15.484Z,6820
2018-04-04T12:00:16.152Z,7220
2018-04-04T12:01:16.857Z,7912
2018-04-04T12:02:17.561Z,8092
2018-04-04T12:03:18.231Z,8256
2018-04-04T12:04:18.896Z,8308
2018-04-04T12:05:19.564Z,8556
2018-04-04T12:06:20.234Z,8676
2018-04-04T12:07:20.901Z,8372
2018-04-04T12:08:21.567Z,7936
2018-04-04T12:09:22.232Z,7256
2018-04-04T12:10:22.904Z,6672
2018-04-04T12:11:23.570Z,6020
2018-04-04T12:12:24.238Z,6048
2018-04-04T12:13:24.903Z,6096
2018-04-04T12:14:25.572Z,5856
2018-04-04T12:15:26.242Z,4908
2018-04-04T12:16:26.907Z,5116
2018-04-04T12:17:27.573Z,3372
2018-04-04T12:18:28.242Z,5572
2018-04-04T12:19:28.947Z,5808
2018-04-04T12:20:29.612Z,5816
2018-04-04T12:21:30.283Z,5876
2018-04-04T12:22:30.952Z,5856
2018-04-04T12:23:31.627Z,5884
2018-04-04T12:24:32.290Z,5884
2018-04-04T12:25:32.958Z,6028
2018-04-04T12:26:33.626Z,6452
2018-04-04T12:27:34.293Z,6768
2018-04-04T12:28:34.960Z,6792
2018-04-04T12:29:35.629Z,6592
2018-04-04T12:30:36.296Z,6456
2018-04-04T12:31:36.968Z,6576
2018-04-04T12:32:37.693Z,7324
2018-04-04T12:33:38.342Z,7864
2018-04-04T12:34:39.008Z,7664
2018-04-04T12:35:39.674Z,7700
2018-04-04T12:36:40.342Z,7664
2018-04-04T12:37:41.013Z,7420
2018-04-04T12:38:41.716Z,7196
2018-04-04T12:39:42.384Z,4332
2018-04-04T12:40:43.051Z,6212
2018-04-04T12:41:43.722Z,6504
2018-04-04T12:42:44.388Z,6284
2018-04-04T12:43:45.054Z,6228
2018-04-04T12:44:45.720Z,6224
2018-04-04T12:45:46.439Z,6220
2018-04-04T12:46:47.106Z,6376
2018-04-04T12:47:47.843Z,6500
2018-04-04T12:48:48.439Z,6548
2018-04-04T12:49:49.106Z,6688
2018-04-04T12:50:49.812Z,6580
2018-04-04T12:51:50.518Z,6556
2018-04-04T12:52:51.145Z,6472
2018-04-04T12:53:51.810Z,5824
2018-04-04T12:54:52.480Z,5720
2018-04-04T12:55:53.147Z,5984
2018-04-04T12:56:53.814Z,6264
2018-04-04T12:57:54.485Z,6384
2018-04-04T12:58:55.151Z,6472
2018-04-04T12:59:55.819Z,5424
2018-04-04T13:00:56.485Z,5084
2018-04-04T13:01:57.154Z,5784
2018-04-04T13:02:57.818Z,7476
2018-04-04T13:03:58.489Z,7240
2018-04-04T13:04:59.153Z,7696
2018-04-04T13:05:59.870Z,7968
2018-04-04T13:07:00.536Z,8080
2018-04-04T13:08:01.207Z,8472
2018-04-04T13:09:01.873Z,8524
2018-04-04T13:10:02.545Z,8364
2018-04-04T13:11:03.208Z,8436
2018-04-04T13:12:03.876Z,8664
2018-04-04T13:13:04.542Z,8432
2018-04-04T13:14:05.214Z,8768
2018-04-04T13:15:05.878Z,8700
2018-04-04T13:16:06.581Z,8520
2018-04-04T13:17:07.253Z,8136
2018-04-04T13:18:07.976Z,8096
2018-04-04T13:19:08.660Z,8648
2018-04-04T13:20:09.329Z,8968
2018-04-04T13:21:09.997Z,9172
2018-04-04T13:22:10.663Z,9032
2018-04-04T13:23:11.333Z,8944
2018-04-04T13:24:12.002Z,9228
2018-04-04T13:25:12.671Z,9524
2018-04-04T13:26:13.390Z,9016
2018-04-04T13:27:14.059Z,8792
2018-04-04T13:28:14.727Z,8500
2018-04-04T13:29:15.393Z,8724
2018-04-04T13:30:16.061Z,7880
2018-04-04T13:31:16.737Z,6428
2018-04-04T13:32:17.432Z,5896
2018-04-04T13:33:18.103Z,6168
2018-04-04T13:34:18.772Z,6256
2018-04-04T13:35:19.439Z,8340
2018-04-04T13:36:20.146Z,6648
2018-04-04T13:37:20.817Z,7520
2018-04-04T13:38:21.484Z,6272
2018-04-04T13:39:22.153Z,6452
2018-04-04T13:40:22.864Z,6488
2018-04-04T13:41:23.530Z,6528
2018-04-04T13:42:24.200Z,6444
2018-04-04T13:43:24.866Z,6144
2018-04-04T13:44:25.540Z,5860
2018-04-04T13:45:26.203Z,5904
2018-04-04T13:46:26.871Z,5716
2018-04-04T13:47:27.541Z,6340
2018-04-04T13:48:28.209Z,5264
2018-04-04T13:49:28.877Z,5264
2018-04-04T13:50:29.548Z,5476
2018-04-04T13:51:30.216Z,6792
2018-04-04T13:52:30.882Z,7048
2018-04-04T13:53:31.551Z,5500
2018-04-04T13:54:32.218Z,5076